Time;durP1;ratioP1;P1;durP2;ratioP2;P2;SDS_P1;SDS_P2;PMS_P1;PMS_P2;Temp;Humidity;BMP_temperature;BMP_pressure;BME280_temperature;BME280_humidity;BME280_pressure;Samples;Min_cycle;Max_cycle;Signal;HPM_P1;HPM_P2
2022/01/26 00:05:43;;;;;;;64.55;36.42;;;4.00;99.90;;;;;;4918471;29;20486;-77
2022/01/26 00:06:29;;;;;;;76.70;37.78;;;4.00;99.90;;;;;;4918512;29;20048;-77
2022/01/26 00:08:55;;;;;;;63.10;33.95;;;4.00;99.90;;;;;;4918538;29;20028;-77
2022/01/26 00:11:20;;;;;;;65.35;35.17;;;3.90;99.90;;;;;;4917841;29;20028;-77
2022/01/26 00:13:46;;;;;;;61.35;35.65;;;3.90;99.90;;;;;;4917754;29;20486;-77
2022/01/26 00:16:24;;;;;;;63.47;35.67;;;3.90;99.90;;;;;;4918101;29;20029;-77
2022/01/26 00:18:53;;;;;;;72.00;35.55;;;3.90;99.90;;;;;;4917989;29;20126;-76
2022/01/26 00:21:30;;;;;;;72.40;36.50;;;3.90;99.90;;;;;;4916740;29;20028;-77
2022/01/26 00:26:31;;;;;;;68.82;37.03;;;3.80;99.90;;;;;;4918447;29;20035;-77
2022/01/26 00:38:34;;;;;;;65.38;35.17;;;3.70;99.90;;;;;;4917864;29;20035;-77
2022/01/26 00:40:02;;;;;;;61.65;34.75;;;3.70;99.90;;;;;;4917861;29;20108;-77
2022/01/26 00:42:33;;;;;;;70.53;37.70;;;3.60;99.90;;;;;;4917659;29;20020;-77
2022/01/26 00:44:59;;;;;;;71.25;35.42;;;3.60;99.90;;;;;;4918239;29;20032;-77
2022/01/26 00:47:25;;;;;;;72.43;37.00;;;3.50;99.90;;;;;;4917750;29;20378;-77
2022/01/26 00:49:56;;;;;;;65.47;36.00;;;3.50;99.90;;;;;;4917642;29;20028;-77
2022/01/26 00:52:29;;;;;;;65.53;35.93;;;3.40;99.90;;;;;;4917610;29;20032;-77
2022/01/26 00:54:59;;;;;;;67.63;37.25;;;3.40;99.90;;;;;;4917595;29;20035;-76
2022/01/26 00:57:24;;;;;;;72.18;35.97;;;3.40;99.90;;;;;;4900495;29;20036;-76
2022/01/26 00:59:50;;;;;;;58.47;33.15;;;3.40;99.90;;;;;;4916841;29;20489;-77
2022/01/26 01:02:16;;;;;;;73.15;34.22;;;3.40;99.90;;;;;;4917219;29;20396;-76
2022/01/26 01:04:42;;;;;;;67.32;35.33;;;3.40;99.90;;;;;;4917176;29;20544;-77
2022/01/26 01:07:11;;;;;;;66.85;34.95;;;3.40;99.90;;;;;;4900456;29;20080;-77
2022/01/26 01:09:37;;;;;;;64.80;35.33;;;3.30;99.90;;;;;;4917440;29;20110;-77
2022/01/26 01:12:05;;;;;;;67.10;35.80;;;3.20;99.90;;;;;;4916595;29;20119;-77
2022/01/26 01:14:36;;;;;;;71.78;36.25;;;3.30;99.90;;;;;;4916270;29;20043;-77
2022/01/26 01:17:04;;;;;;;70.88;34.67;;;3.20;99.90;;;;;;4917233;29;20396;-77
2022/01/26 01:30:30;;;;;;;68.00;33.78;;;3.00;99.90;;;;;;4880315;29;19907;-77
2022/01/26 01:32:53;;;;;;;64.10;33.55;;;3.00;99.90;;;;;;4915909;29;20036;-77
2022/01/26 01:35:19;;;;;;;69.72;35.78;;;3.10;99.90;;;;;;4899778;29;20393;-76
2022/01/26 01:37:45;;;;;;;67.68;33.90;;;3.00;99.90;;;;;;4916529;29;20031;-77
2022/01/26 01:40:11;;;;;;;64.22;34.83;;;3.00;99.90;;;;;;4916339;29;20536;-77
2022/01/26 01:42:37;;;;;;;68.15;33.83;;;3.00;99.90;;;;;;4916301;29;20039;-77
2022/01/26 01:45:04;;;;;;;70.85;35.13;;;3.00;99.90;;;;;;4915597;29;20075;-77
2022/01/26 01:47:31;;;;;;;63.55;35.17;;;3.10;99.90;;;;;;4916140;29;20521;-77
2022/01/26 01:49:56;;;;;;;69.35;34.50;;;3.10;99.90;;;;;;4916185;29;20032;-77
2022/01/26 01:52:23;;;;;;;64.07;35.13;;;3.10;99.90;;;;;;4916727;29;20071;-77
2022/01/26 01:54:52;;;;;;;65.05;34.00;;;3.10;99.90;;;;;;4916476;29;20057;-77
2022/01/26 01:57:23;;;;;;;65.10;34.55;;;3.10;99.90;;;;;;4916783;29;20020;-76
2022/01/26 01:59:50;;;;;;;66.85;35.13;;;3.10;99.90;;;;;;4916701;29;20087;-77
2022/01/26 02:02:16;;;;;;;60.47;32.60;;;3.20;99.90;;;;;;4916727;29;20442;-77
2022/01/26 02:04:42;;;;;;;64.30;35.35;;;3.10;99.90;;;;;;4899420;29;20032;-77
2022/01/26 02:07:10;;;;;;;70.32;37.05;;;3.10;99.90;;;;;;4916107;29;20366;-76
2022/01/26 02:09:36;;;;;;;74.95;38.72;;;3.20;99.90;;;;;;4915894;29;20024;-77
2022/01/26 02:12:16;;;;;;;75.45;37.05;;;3.20;99.90;;;;;;4916157;29;20478;-77
2022/01/26 02:14:51;;;;;;;88.18;41.53;;;3.20;99.90;;;;;;4916167;29;20068;-77
2022/01/26 02:20:22;;;;;;;82.57;39.72;;;3.30;99.90;;;;;;4916319;29;20405;-77
2022/01/26 02:56:02;;;;;;;73.32;37.00;;;3.50;99.90;;;;;;4866851;29;20037;-77
2022/01/26 03:03:52;;;;;;;76.55;38.72;;;3.40;99.90;;;;;;4900641;29;20107;-77
2022/01/26 03:06:24;;;;;;;73.38;37.80;;;3.30;99.90;;;;;;4900411;29;20020;-77
2022/01/26 03:08:57;;;;;;;73.03;38.20;;;3.30;99.90;;;;;;4900365;29;20025;-77
2022/01/26 03:11:27;;;;;;;73.95;38.03;;;3.30;99.90;;;;;;4900213;29;20386;-77
2022/01/26 03:14:01;;;;;;;77.07;39.47;;;3.20;99.90;;;;;;4900718;29;20088;-77
2022/01/26 03:16:33;;;;;;;72.85;37.25;;;3.20;99.90;;;;;;4900732;29;20036;-77
2022/01/26 03:21:44;;;;;;;78.05;38.92;;;3.30;99.90;;;;;;4900750;29;20031;-77
2022/01/26 03:29:43;;;;;;;79.45;38.45;;;3.40;99.90;;;;;;4900644;29;20035;-77
2022/01/26 03:34:56;;;;;;;80.47;41.05;;;3.40;99.90;;;;;;4900461;29;20393;-77
2022/01/26 03:37:26;;;;;;;73.45;38.28;;;3.50;99.90;;;;;;4900711;29;20422;-76
2022/01/26 03:39:53;;;;;;;73.85;39.53;;;3.60;99.90;;;;;;4903348;29;20035;-76
2022/01/26 03:42:19;;;;;;;79.53;39.25;;;3.60;99.90;;;;;;4884164;29;20052;-76
2022/01/26 03:44:44;;;;;;;77.30;41.00;;;3.70;99.90;;;;;;4901533;29;20603;-76
2022/01/26 03:47:11;;;;;;;78.68;40.08;;;3.70;99.90;;;;;;4901140;29;20025;-77
2022/01/26 03:49:37;;;;;;;79.32;40.08;;;3.80;99.90;;;;;;4901855;29;20036;-77
2022/01/26 03:52:05;;;;;;;75.13;38.53;;;3.70;99.90;;;;;;4900979;29;20430;-77
2022/01/26 03:54:31;;;;;;;71.68;36.38;;;3.70;99.90;;;;;;4888785;29;20061;-76
2022/01/26 03:56:56;;;;;;;67.78;38.28;;;3.70;99.90;;;;;;4900674;29;20028;-77
2022/01/26 03:59:22;;;;;;;71.10;38.90;;;3.60;99.90;;;;;;4900062;29;20557;-77
2022/01/26 04:01:48;;;;;;;70.82;38.80;;;3.60;99.90;;;;;;4900551;29;20125;-77
2022/01/26 04:04:14;;;;;;;69.95;37.08;;;3.60;99.90;;;;;;4901117;29;20036;-77
2022/01/26 04:06:40;;;;;;;69.63;36.92;;;3.60;99.90;;;;;;4883509;29;20391;-77
2022/01/26 04:09:09;;;;;;;69.05;35.42;;;3.50;99.90;;;;;;4900464;29;20029;-77
2022/01/26 04:11:38;;;;;;;68.30;36.60;;;3.50;99.90;;;;;;4900255;29;20029;-76
2022/01/26 04:14:08;;;;;;;70.40;37.03;;;3.40;99.90;;;;;;4900361;29;20025;-76
2022/01/26 04:16:35;;;;;;;76.68;38.70;;;3.30;99.90;;;;;;4899922;29;20116;-76
2022/01/26 04:19:03;;;;;;;64.70;36.03;;;3.30;99.90;;;;;;4882812;29;20036;-76
2022/01/26 04:21:51;;;;;;;73.57;36.80;;;3.20;99.90;;;;;;4899252;29;20103;-77
2022/01/26 04:24:53;;;;;;;74.53;38.20;;;3.20;99.90;;;;;;4899316;29;20084;-76
2022/01/26 04:27:23;;;;;;;72.43;38.88;;;3.20;99.90;;;;;;4897193;29;20108;-77
2022/01/26 04:29:50;;;;;;;67.70;35.85;;;3.20;99.90;;;;;;4899678;29;20088;-77
2022/01/26 04:32:17;;;;;;;64.32;34.92;;;3.30;99.90;;;;;;4882502;29;20434;-76
2022/01/26 04:34:43;;;;;;;68.70;37.45;;;3.30;99.90;;;;;;4899143;29;20063;-76
2022/01/26 04:40:01;;;;;;;77.70;38.67;;;3.40;99.90;;;;;;4898942;29;20042;-77
2022/01/26 04:42:39;;;;;;;64.22;34.67;;;3.40;99.90;;;;;;4898573;29;20040;-77
2022/01/26 04:45:08;;;;;;;68.88;36.58;;;3.40;99.90;;;;;;4898629;29;20107;-77
2022/01/26 04:47:34;;;;;;;66.47;35.03;;;3.40;99.90;;;;;;4899052;29;20056;-77
2022/01/26 04:50:01;;;;;;;66.65;34.83;;;3.40;99.90;;;;;;4897636;29;20028;-77
2022/01/26 04:52:26;;;;;;;64.35;35.58;;;3.40;99.90;;;;;;4898720;29;20435;-77
2022/01/26 04:54:52;;;;;;;64.28;33.80;;;3.30;99.90;;;;;;4898977;29;20024;-77
2022/01/26 04:57:18;;;;;;;69.72;34.15;;;3.30;99.90;;;;;;4898570;29;20021;-78
2022/01/26 04:59:44;;;;;;;63.53;33.47;;;3.30;99.90;;;;;;4898588;29;20071;-77
2022/01/26 05:02:09;;;;;;;68.75;35.00;;;3.30;99.90;;;;;;4898590;29;20068;-77
2022/01/26 05:04:35;;;;;;;66.43;35.08;;;3.20;99.90;;;;;;4897208;29;20063;-77
2022/01/26 05:07:01;;;;;;;62.95;33.15;;;3.20;99.90;;;;;;4900175;29;20393;-77
2022/01/26 05:09:27;;;;;;;69.20;33.45;;;3.20;99.90;;;;;;4917456;29;20035;-77
2022/01/26 05:11:54;;;;;;;64.60;33.33;;;3.30;99.90;;;;;;4917283;29;20058;-77
2022/01/26 05:14:20;;;;;;;61.67;32.67;;;3.30;99.90;;;;;;4900297;29;20470;-77
2022/01/26 05:16:47;;;;;;;59.90;32.65;;;3.30;99.90;;;;;;4899924;29;20187;-77
2022/01/26 05:19:12;;;;;;;62.80;32.63;;;3.20;99.90;;;;;;4916982;29;20040;-77
2022/01/26 05:21:38;;;;;;;63.05;32.28;;;3.20;99.90;;;;;;4916912;29;20445;-77
2022/01/26 05:24:04;;;;;;;57.25;31.75;;;3.10;99.90;;;;;;4917355;29;20028;-76
2022/01/26 05:26:30;;;;;;;60.13;31.73;;;3.10;99.90;;;;;;4917044;29;20039;-77
2022/01/26 05:28:56;;;;;;;59.90;31.77;;;3.10;99.90;;;;;;4917171;29;20028;-77
2022/01/26 05:31:22;;;;;;;50.42;29.27;;;3.00;99.90;;;;;;4917124;29;20028;-76
2022/01/26 05:33:48;;;;;;;72.65;34.63;;;3.00;99.90;;;;;;4917187;29;20034;-77
2022/01/26 05:36:14;;;;;;;62.55;32.92;;;2.90;99.90;;;;;;4916926;29;20024;-76
2022/01/26 05:38:40;;;;;;;65.95;33.83;;;3.00;99.90;;;;;;4917064;29;20401;-77
2022/01/26 05:41:07;;;;;;;67.25;32.80;;;3.00;99.90;;;;;;4916613;29;20107;-76
2022/01/26 05:43:33;;;;;;;63.00;31.10;;;3.00;99.90;;;;;;4916160;29;20071;-77
2022/01/26 05:46:07;;;;;;;57.47;30.45;;;3.00;99.90;;;;;;4915835;29;20533;-77
2022/01/26 05:48:35;;;;;;;54.55;31.13;;;3.00;99.90;;;;;;4916668;29;20544;-77
2022/01/26 05:51:06;;;;;;;59.55;30.42;;;3.00;99.90;;;;;;4916493;29;20024;-77
2022/01/26 05:53:36;;;;;;;56.25;30.13;;;3.10;99.90;;;;;;4916719;29;20586;-77
2022/01/26 05:56:02;;;;;;;55.38;29.08;;;3.10;99.90;;;;;;4916574;29;20462;-77
2022/01/26 05:58:28;;;;;;;49.70;28.02;;;3.10;99.90;;;;;;4916811;29;20036;-76
2022/01/26 06:00:58;;;;;;;52.50;26.08;;;3.10;99.90;;;;;;4916648;29;20052;-77
2022/01/26 06:03:24;;;;;;;49.08;26.73;;;3.10;99.90;;;;;;4899464;29;20035;-77
2022/01/26 06:05:50;;;;;;;52.38;27.67;;;3.00;99.90;;;;;;4916488;29;20028;-77
2022/01/26 06:08:15;;;;;;;55.03;28.27;;;3.00;99.90;;;;;;4899909;29;20116;-77
2022/01/26 06:10:41;;;;;;;48.03;26.38;;;3.00;99.90;;;;;;4916698;29;20027;-77
2022/01/26 06:13:07;;;;;;;50.67;28.50;;;2.90;99.90;;;;;;4916225;29;20024;-77
2022/01/26 06:15:33;;;;;;;45.22;25.00;;;2.90;99.90;;;;;;4899434;29;20032;-77
2022/01/26 06:17:58;;;;;;;51.30;25.27;;;2.90;99.90;;;;;;4899653;29;20102;-79
2022/01/26 06:20:24;;;;;;;48.47;25.40;;;2.90;99.90;;;;;;4899485;29;20032;-77
2022/01/26 06:22:50;;;;;;;43.05;24.90;;;2.90;99.90;;;;;;4916583;29;20152;-77
2022/01/26 06:25:16;;;;;;;43.55;23.70;;;3.00;99.90;;;;;;4899265;29;20381;-77
2022/01/26 06:27:44;;;;;;;43.25;24.80;;;3.00;99.90;;;;;;4916406;29;20036;-77
2022/01/26 06:30:11;;;;;;;49.50;25.95;;;3.00;99.90;;;;;;4917548;29;20024;-77
2022/01/26 06:32:38;;;;;;;48.03;24.95;;;3.10;99.90;;;;;;4920241;29;20024;-76
2022/01/26 06:35:06;;;;;;;45.30;24.73;;;3.10;99.90;;;;;;4902992;29;20052;-77
2022/01/26 06:37:32;;;;;;;46.10;23.95;;;3.10;99.90;;;;;;4920236;29;20032;-77
2022/01/26 06:39:58;;;;;;;52.72;28.40;;;3.10;99.90;;;;;;4919963;29;20050;-78
2022/01/26 06:42:29;;;;;;;68.28;37.90;;;3.10;99.90;;;;;;4920029;29;20091;-77
2022/01/26 06:45:13;;;;;;;43.85;25.77;;;3.10;99.90;;;;;;4920284;29;20039;-77
2022/01/26 06:50:13;;;;;;;51.60;29.60;;;3.10;99.90;;;;;;4919566;29;20036;-77
2022/01/26 06:52:43;;;;;;;48.17;27.23;;;3.10;99.90;;;;;;4919281;29;20429;-76
2022/01/26 06:55:09;;;;;;;67.05;38.33;;;3.10;99.90;;;;;;4919438;29;20032;-76
2022/01/26 06:57:35;;;;;;;68.00;36.20;;;3.20;99.90;;;;;;4919568;29;20662;-76
2022/01/26 07:00:02;;;;;;;46.78;27.10;;;3.10;99.90;;;;;;4919815;29;20095;-75
2022/01/26 07:02:28;;;;;;;45.50;27.30;;;3.20;99.90;;;;;;4919691;29;20031;-76
2022/01/26 07:04:53;;;;;;;49.13;27.17;;;3.40;99.90;;;;;;4902858;29;20420;-76
2022/01/26 07:07:19;;;;;;;43.92;24.60;;;3.60;99.90;;;;;;4920515;29;20028;-76
2022/01/26 07:09:45;;;;;;;41.22;22.38;;;3.70;99.90;;;;;;4918830;29;20393;-76
2022/01/26 07:12:11;;;;;;;38.45;21.90;;;4.00;99.90;;;;;;4919460;29;20032;-76
2022/01/26 07:22:49;;;;;;;37.53;20.65;;;4.40;99.90;;;;;;4919162;29;20463;-76
2022/01/26 07:25:15;;;;;;;38.33;22.13;;;4.70;99.90;;;;;;4919620;29;20059;-77
2022/01/26 07:27:42;;;;;;;44.38;21.45;;;4.90;99.90;;;;;;4919586;29;20028;-76
2022/01/26 07:30:08;;;;;;;37.08;21.48;;;5.20;99.90;;;;;;4919622;29;20020;-75
2022/01/26 07:32:36;;;;;;;49.72;21.73;;;5.50;99.90;;;;;;4902040;29;20032;-76
2022/01/26 07:35:03;;;;;;;47.85;25.73;;;5.80;99.90;;;;;;4919257;29;20028;-76
2022/01/26 07:37:29;;;;;;;34.58;19.38;;;5.90;99.90;;;;;;4919040;29;20031;-76
2022/01/26 07:40:06;;;;;;;33.85;20.63;;;6.10;99.90;;;;;;4918767;29;20111;-76
2022/01/26 07:42:33;;;;;;;39.03;20.98;;;6.20;99.90;;;;;;4919189;29;20079;-76
2022/01/26 07:44:59;;;;;;;47.67;28.55;;;6.00;99.90;;;;;;4919081;29;20060;-75
2022/01/26 07:47:25;;;;;;;38.28;22.20;;;6.20;99.90;;;;;;4901801;29;20024;-75
2022/01/26 07:49:54;;;;;;;41.38;24.58;;;6.50;99.90;;;;;;4918808;29;20083;-75
2022/01/26 07:52:20;;;;;;;39.08;22.02;;;6.50;99.90;;;;;;4918655;29;20028;-77
2022/01/26 07:54:50;;;;;;;56.22;29.83;;;6.80;99.90;;;;;;4918639;29;20028;-75
2022/01/26 07:57:16;;;;;;;73.35;32.33;;;6.70;99.90;;;;;;4918801;29;20032;-75
2022/01/26 07:59:41;;;;;;;77.75;40.80;;;6.70;99.90;;;;;;4918833;29;20032;-75
2022/01/26 08:02:07;;;;;;;60.45;31.02;;;6.80;99.90;;;;;;4918916;29;20104;-75
2022/01/26 08:04:33;;;;;;;59.85;31.55;;;7.00;99.90;;;;;;4918983;29;20032;-75
2022/01/26 08:06:58;;;;;;;41.65;23.08;;;7.30;99.90;;;;;;4918986;29;20028;-75
2022/01/26 08:09:24;;;;;;;50.80;26.48;;;7.60;99.90;;;;;;4918776;29;20052;-76
2022/01/26 08:11:50;;;;;;;40.58;23.95;;;7.90;99.90;;;;;;4918890;29;20038;-75
2022/01/26 08:14:15;;;;;;;49.78;27.95;;;8.10;99.90;;;;;;4918646;29;20028;-75
2022/01/26 08:16:41;;;;;;;51.55;28.23;;;8.30;99.90;;;;;;4918484;29;20103;-75
2022/01/26 08:19:08;;;;;;;48.10;26.23;;;8.40;99.90;;;;;;4918500;29;20044;-75
2022/01/26 08:21:33;;;;;;;39.55;22.67;;;8.10;99.90;;;;;;4916587;29;20496;-74
2022/01/26 08:24:03;;;;;;;40.95;23.67;;;8.10;99.90;;;;;;4917755;29;20024;-78
2022/01/26 08:26:40;;;;;;;44.25;23.92;;;8.50;99.90;;;;;;4899297;29;20020;-76
2022/01/26 08:29:13;;;;;;;33.38;20.33;;;8.60;99.90;;;;;;4917423;29;20469;-77
2022/01/26 08:31:39;;;;;;;43.53;22.08;;;9.00;99.90;;;;;;4918031;29;20028;-75
2022/01/26 08:34:04;;;;;;;39.13;22.88;;;9.40;99.90;;;;;;4917929;29;20103;-76
2022/01/26 08:36:30;;;;;;;47.38;25.48;;;9.20;99.90;;;;;;4900332;29;20032;-74
2022/01/26 08:38:56;;;;;;;32.38;21.45;;;9.10;99.90;;;;;;4916706;29;20128;-73
2022/01/26 08:41:22;;;;;;;32.78;18.92;;;9.20;99.90;;;;;;4916546;29;20104;-73
2022/01/26 08:43:48;;;;;;;35.35;21.70;;;9.60;99.90;;;;;;4914831;29;20032;-73
2022/01/26 08:46:17;;;;;;;32.75;17.80;;;10.00;99.90;;;;;;4913675;29;20013;-73
2022/01/26 08:48:42;;;;;;;36.78;19.75;;;10.20;99.90;;;;;;4910826;29;20949;-72
2022/01/26 08:51:08;;;;;;;31.25;20.00;;;10.40;99.90;;;;;;4915863;29;20111;-74
2022/01/26 08:53:34;;;;;;;33.63;18.88;;;10.60;99.90;;;;;;4933907;29;20024;-73
2022/01/26 08:55:59;;;;;;;28.92;17.80;;;11.00;99.90;;;;;;4936135;29;20102;-74
2022/01/26 08:58:25;;;;;;;31.35;18.73;;;11.30;99.90;;;;;;4926668;29;20043;-73
2022/01/26 09:00:52;;;;;;;30.60;18.58;;;11.40;99.90;;;;;;4917075;29;20581;-74
2022/01/26 09:03:18;;;;;;;26.70;17.70;;;11.40;99.90;;;;;;4899925;29;20035;-75
2022/01/26 09:05:44;;;;;;;28.35;17.02;;;11.50;99.90;;;;;;4917420;29;20111;-78
2022/01/26 09:08:09;;;;;;;28.50;17.58;;;11.20;99.90;;;;;;4914492;29;20048;-73
2022/01/26 09:10:38;;;;;;;28.92;18.30;;;11.30;99.90;;;;;;4916952;29;20438;-74
2022/01/26 09:13:03;;;;;;;29.98;17.80;;;11.40;99.90;;;;;;4916765;29;20106;-74
2022/01/26 09:15:31;;;;;;;25.42;16.70;;;11.20;99.90;;;;;;4917088;29;20028;-73
2022/01/26 09:17:59;;;;;;;33.08;17.15;;;11.70;99.90;;;;;;4916063;29;20538;-73
2022/01/26 09:20:24;;;;;;;27.92;16.83;;;12.30;99.90;;;;;;4917013;29;20103;-74
2022/01/26 09:22:50;;;;;;;26.20;15.20;;;12.80;99.90;;;;;;4916518;29;20154;-75
2022/01/26 09:25:16;;;;;;;24.83;16.65;;;13.10;99.90;;;;;;4916079;29;20020;-75
2022/01/26 09:27:42;;;;;;;26.48;16.77;;;12.90;99.90;;;;;;4914984;29;20039;-75
2022/01/26 09:30:09;;;;;;;23.45;15.05;;;12.60;99.90;;;;;;4914993;29;20032;-75
2022/01/26 09:32:34;;;;;;;25.33;16.20;;;12.60;99.90;;;;;;4915924;29;20047;-77
2022/01/26 09:35:00;;;;;;;27.20;16.70;;;12.30;99.90;;;;;;4916206;29;20470;-74
2022/01/26 09:37:27;;;;;;;28.92;18.63;;;12.20;99.90;;;;;;4916274;29;20023;-75
2022/01/26 09:39:54;;;;;;;32.25;17.83;;;12.30;99.90;;;;;;4916409;29;20032;-80
2022/01/26 09:42:20;;;;;;;26.88;16.67;;;12.50;99.90;;;;;;4899405;29;20405;-76
2022/01/26 09:44:46;;;;;;;26.23;16.13;;;12.70;99.90;;;;;;4898909;29;20034;-74
2022/01/26 09:47:12;;;;;;;28.17;16.00;;;12.60;99.90;;;;;;4915828;29;20028;-74
2022/01/26 09:49:39;;;;;;;25.05;15.45;;;12.70;99.90;;;;;;4915846;29;20040;-74
2022/01/26 09:52:13;;;;;;;26.25;16.00;;;12.60;99.90;;;;;;4899306;29;20102;-74
2022/01/26 09:54:41;;;;;;;26.40;16.90;;;12.40;99.90;;;;;;4914151;29;20031;-75
2022/01/26 09:57:06;;;;;;;32.38;16.45;;;12.20;99.90;;;;;;4916116;29;20147;-75
2022/01/26 09:59:33;;;;;;;27.40;18.08;;;12.00;99.90;;;;;;4915032;29;20135;-75
2022/01/26 10:01:59;;;;;;;32.70;17.55;;;12.10;99.90;;;;;;4912347;29;20060;-74
2022/01/26 10:04:32;;;;;;;23.55;15.77;;;12.20;99.90;;;;;;4913815;29;20060;-74
2022/01/26 10:07:50;;;;;;;27.30;16.17;;;12.40;99.90;;;;;;4914467;29;20024;-75
2022/01/26 10:15:36;;;;;;;33.88;18.55;;;12.70;99.90;;;;;;4914708;29;20099;-74
2022/01/26 10:18:11;;;;;;;41.88;17.70;;;12.60;99.90;;;;;;4915176;29;20025;-74
2022/01/26 10:20:57;;;;;;;31.90;20.33;;;12.80;99.90;;;;;;4898720;29;20036;-75
2022/01/26 10:23:42;;;;;;;31.15;18.85;;;13.30;99.90;;;;;;4896114;29;20017;-74
2022/01/26 10:26:12;;;;;;;31.13;19.35;;;13.50;99.90;;;;;;4914246;29;20047;-75
2022/01/26 10:28:43;;;;;;;35.80;20.45;;;13.90;99.90;;;;;;4907561;29;20072;-74
2022/01/26 10:31:18;;;;;;;32.88;20.85;;;14.10;99.90;;;;;;4914654;29;20043;-76
2022/01/26 10:34:01;;;;;;;39.05;22.50;;;14.30;99.90;;;;;;4897488;29;20024;-75
2022/01/26 10:36:38;;;;;;;42.80;23.67;;;14.50;99.90;;;;;;4897516;29;20430;-75
2022/01/26 10:39:27;;;;;;;43.65;22.45;;;14.80;99.90;;;;;;4913961;29;20043;-75
2022/01/26 10:41:56;;;;;;;40.55;24.00;;;14.90;99.90;;;;;;4898052;29;20075;-75
2022/01/26 10:44:31;;;;;;;39.05;21.80;;;14.70;99.90;;;;;;4914798;29;20060;-75
2022/01/26 10:47:03;;;;;;;33.33;21.10;;;15.00;99.90;;;;;;4915195;29;20064;-76
2022/01/26 10:52:23;;;;;;;36.60;22.38;;;15.00;99.90;;;;;;4914689;29;20036;-76
2022/01/26 10:54:50;;;;;;;36.97;21.58;;;15.10;99.90;;;;;;4898204;29;20047;-76
2022/01/26 10:57:16;;;;;;;38.50;20.02;;;15.00;99.90;;;;;;4915742;29;20056;-76
2022/01/26 10:59:47;;;;;;;38.38;22.23;;;15.30;99.90;;;;;;4897921;29;20044;-76
2022/01/26 11:02:14;;;;;;;37.23;22.57;;;15.50;99.90;;;;;;4898254;29;20059;-76
2022/01/26 11:04:43;;;;;;;34.97;21.58;;;15.60;99.90;;;;;;4915968;29;20311;-76
2022/01/26 11:07:11;;;;;;;33.08;24.60;;;15.60;99.90;;;;;;4915611;29;20025;-76
2022/01/26 11:09:39;;;;;;;33.10;21.75;;;15.50;99.90;;;;;;4915548;29;20072;-76
2022/01/26 11:12:07;;;;;;;29.83;19.85;;;15.50;99.90;;;;;;4915536;29;20462;-76
2022/01/26 11:14:49;;;;;;;33.22;21.45;;;15.50;99.90;;;;;;4915290;29;20031;-76
2022/01/26 11:17:34;;;;;;;;;;;15.50;99.90;;;;;;4901600;29;20032;-76
2022/01/26 11:20:03;;;;;;;37.13;20.60;;;15.40;99.90;;;;;;4917642;29;19915;-75
2022/01/26 11:22:32;;;;;;;38.20;21.00;;;15.30;99.90;;;;;;4918784;29;20013;-76
2022/01/26 11:25:11;;;;;;;27.35;18.83;;;15.40;99.90;;;;;;4919695;29;20106;-75
2022/01/26 11:27:39;;;;;;;31.45;19.85;;;15.50;99.90;;;;;;4918828;29;20106;-76
2022/01/26 11:30:17;;;;;;;33.30;20.35;;;15.50;99.90;;;;;;4919310;29;20024;-77
2022/01/26 11:32:51;;;;;;;29.52;18.88;;;15.20;99.90;;;;;;4916901;29;20111;-76
2022/01/26 11:35:18;;;;;;;30.02;20.25;;;15.20;99.90;;;;;;4918583;29;20020;-77
2022/01/26 11:37:48;;;;;;;41.03;21.05;;;15.20;99.90;;;;;;4901334;29;20099;-77
2022/01/26 11:46:11;;;;;;;43.35;20.15;;;15.30;99.90;;;;;;4916972;29;20487;-75
2022/01/26 11:48:37;;;;;;;38.28;22.40;;;15.10;99.90;;;;;;4916643;29;20056;-75
2022/01/26 11:51:04;;;;;;;32.22;21.25;;;14.90;99.90;;;;;;4901833;29;20034;-76
2022/01/26 11:53:31;;;;;;;36.08;20.00;;;14.90;99.90;;;;;;4917192;29;20076;-76
2022/01/26 11:56:08;;;;;;;38.47;21.35;;;14.90;99.90;;;;;;4918172;29;20064;-80
2022/01/26 11:58:41;;;;;;;35.30;20.77;;;14.80;99.90;;;;;;4918394;29;20500;-78
2022/01/26 12:03:45;;;;;;;36.65;21.08;;;14.50;99.90;;;;;;4919109;29;20035;-79
2022/01/26 12:06:20;;;;;;;37.15;20.95;;;14.20;99.90;;;;;;4901504;29;20036;-76
2022/01/26 12:08:47;;;;;;;31.75;20.48;;;13.90;99.90;;;;;;4901339;29;20469;-76
2022/01/26 12:11:15;;;;;;;31.92;20.38;;;13.80;99.90;;;;;;4918291;29;20032;-76
2022/01/26 12:13:43;;;;;;;34.22;20.15;;;13.70;99.90;;;;;;4901517;29;20035;-76
2022/01/26 12:16:17;;;;;;;37.75;20.52;;;13.50;99.90;;;;;;4918468;29;20445;-76
2022/01/26 12:33:32;;;;;;;29.75;18.45;;;12.30;99.90;;;;;;4919232;29;20038;-75
2022/01/26 12:35:57;;;;;;;31.52;19.35;;;12.10;99.90;;;;;;4918785;29;20032;-75
2022/01/26 12:38:33;;;;;;;33.67;20.05;;;12.00;99.90;;;;;;4918530;29;20047;-75
2022/01/26 12:43:44;;;;;;;38.55;21.05;;;11.80;99.90;;;;;;4918987;29;20068;-75
2022/01/26 12:46:16;;;;;;;41.60;24.05;;;11.70;99.90;;;;;;4918013;29;20028;-75
2022/01/26 12:48:48;;;;;;;32.40;22.02;;;11.60;99.90;;;;;;4918186;29;20028;-75
2022/01/26 12:51:14;;;;;;;;;;;11.60;99.90;;;;;;4917748;29;20032;-75
2022/01/26 12:53:40;;;;;;;46.90;25.20;;;11.50;99.90;;;;;;4917709;29;19907;-75
2022/01/26 12:56:11;;;;;;;37.67;22.58;;;11.50;99.90;;;;;;4918218;29;20031;-74
2022/01/26 12:58:40;;;;;;;43.03;21.00;;;11.30;99.90;;;;;;4918235;29;20028;-75
2022/01/26 13:01:08;;;;;;;39.80;23.73;;;11.20;99.90;;;;;;4899980;29;20032;-76
2022/01/26 13:03:40;;;;;;;38.88;23.48;;;11.10;99.90;;;;;;4900026;29;20032;-75
2022/01/26 13:06:24;;;;;;;;;;;11.00;99.90;;;;;;4917864;29;20390;-76
2022/01/26 13:09:01;;;;;;;44.75;24.00;;;10.90;99.90;;;;;;4916977;29;19914;-76
2022/01/26 13:11:28;;;;;;;40.10;22.60;;;10.80;99.90;;;;;;4899484;29;20035;-76
2022/01/26 13:14:15;;;;;;;41.33;25.67;;;10.80;99.90;;;;;;4916307;29;20024;-76
2022/01/26 13:16:55;;;;;;;41.80;24.55;;;10.70;99.90;;;;;;4916102;29;20031;-77
2022/01/26 13:22:56;;;;;;;41.60;23.65;;;10.60;99.90;;;;;;4916672;29;20385;-76
2022/01/26 13:25:31;;;;;;;36.85;23.35;;;10.50;99.90;;;;;;4906511;29;20040;-76
2022/01/26 13:48:54;;;;;;;41.95;24.50;;;10.00;99.90;;;;;;4915799;29;20024;-75
2022/01/26 13:54:09;;;;;;;47.05;25.92;;;9.90;99.90;;;;;;4915245;29;20544;-75
2022/01/26 13:56:52;;;;;;;46.83;25.77;;;9.90;99.90;;;;;;4915665;29;20492;-75
2022/01/26 13:59:25;;;;;;;41.58;25.58;;;9.90;99.90;;;;;;4915191;29;20036;-75
2022/01/26 14:01:51;;;;;;;36.20;22.85;;;9.80;99.90;;;;;;4898193;29;20056;-75
2022/01/26 14:04:18;;;;;;;42.60;25.73;;;9.70;99.90;;;;;;4914121;29;20024;-75
2022/01/26 14:06:47;;;;;;;46.50;25.88;;;9.70;99.90;;;;;;4914810;29;20012;-77
2022/01/26 14:09:13;;;;;;;48.20;26.05;;;9.60;99.90;;;;;;4914803;29;20025;-77
2022/01/26 14:11:39;;;;;;;43.10;25.48;;;9.60;99.90;;;;;;4914841;29;20024;-76
2022/01/26 14:14:06;;;;;;;50.90;25.20;;;9.50;99.90;;;;;;4906330;29;20092;-75
2022/01/26 14:16:43;;;;;;;48.08;26.48;;;9.50;99.90;;;;;;4914192;29;20702;-75
2022/01/26 14:26:45;;;;;;;;;;;9.30;99.90;;;;;;4913593;29;20027;-78
2022/01/26 14:39:32;;;;;;;42.97;25.90;;;9.20;99.90;;;;;;4914787;29;20104;-76
2022/01/26 14:51:07;;;;;;;43.05;26.00;;;9.20;99.90;;;;;;4916052;29;20039;-76
2022/01/26 14:54:13;;;;;;;47.33;26.38;;;9.20;99.90;;;;;;4918967;29;20068;-75
2022/01/26 15:42:46;;;;;;;65.68;35.97;;;8.40;99.90;;;;;;4912742;29;20051;-74
2022/01/26 15:58:44;;;;;;;70.78;40.45;;;8.00;99.90;;;;;;4832545;29;20432;-77
2022/01/26 16:35:56;;;;;;;85.60;45.47;;;7.40;99.90;;;;;;4907204;29;20148;-75
2022/01/26 17:25:01;;;;;;;129.73;65.28;;;6.70;99.90;;;;;;4916406;29;20054;-74
2022/01/26 18:25:50;;;;;;;113.85;57.47;;;6.30;99.90;;;;;;4914660;29;20032;-76
2022/01/26 18:26:32;;;;;;;94.40;51.13;;;5.90;99.90;;;;;;4911774;29;20458;-75
2022/01/26 18:32:30;;;;;;;109.32;51.25;;;5.80;99.90;;;;;;4916004;29;20413;-75
2022/01/26 18:40:45;;;;;;;102.60;49.67;;;5.70;99.90;;;;;;4915150;29;20449;-74
2022/01/26 18:51:10;;;;;;;101.22;51.60;;;5.50;99.90;;;;;;4914903;29;20103;-75
2022/01/26 18:53:36;;;;;;;95.63;51.83;;;5.40;99.90;;;;;;4915590;29;20063;-73
2022/01/26 18:56:02;;;;;;;95.93;50.30;;;5.40;99.90;;;;;;4915582;29;20140;-74
2022/01/26 18:58:27;;;;;;;103.38;51.67;;;5.40;99.90;;;;;;4915745;29;20111;-74
2022/01/26 19:00:53;;;;;;;98.57;49.55;;;5.40;99.90;;;;;;4914940;29;20123;-75
2022/01/26 19:03:19;;;;;;;97.35;53.33;;;5.40;99.90;;;;;;4914787;29;20116;-74
2022/01/26 19:05:45;;;;;;;110.55;54.30;;;5.40;99.90;;;;;;4914698;29;20465;-74
2022/01/26 19:08:11;;;;;;;96.85;53.00;;;5.30;99.90;;;;;;4897896;29;21477;-75
2022/01/26 19:10:37;;;;;;;92.35;50.92;;;5.30;99.90;;;;;;4915015;29;20056;-75
2022/01/26 19:13:02;;;;;;;89.22;49.00;;;5.20;99.90;;;;;;4914761;29;20111;-75
2022/01/26 19:15:31;;;;;;;88.43;48.95;;;5.20;99.90;;;;;;4913591;29;20374;-76
2022/01/26 19:18:10;;;;;;;99.25;50.17;;;5.20;99.90;;;;;;4910260;29;20536;-74